Latest Weather Observations for Blackwater Airport

IDQ60801

Issued at 12:05 am EST Tuesday 23 September 2014 (issued every 30 minutes, with the page automatically refreshed every 10 minutes)

About weather observations | Map of weather stations | Latest weather observations for QLD | Other Formats
Station Details ID: 035134 Name: BLACKWATER AIRPORT Lat: -23.60 Lon: 148.81 Height: 192.95 m
Data from the previous 72 hours. | See also: Recent months at Blackwater Airport
Date/Time
EST
Temp
°C
App
Temp
°C
Dew
Point
Rel
Hum
%
Delta-T
°C
Wind Press
QNH
hPa
Press
MSL
hPa
Rain
since 9 am
mm
Dir
 
Spd
km/h
Gust
km/h
Spd
kts
Gust
kts
23/12:00am 16.1 13.2 12.8 81 1.8 ESE 20 33 11 18 1023.1 1022.4 28.0
 
Date/Time
EST
Temp
°C
App
Temp
°C
Dew
Point
Rel
Hum
%
Delta-T
°C
Wind Press
QNH
hPa
Press
MSL
hPa
Rain
since 9 am
mm
Dir
 
Spd
km/h
Gust
km/h
Spd
kts
Gust
kts
22/11:30pm 16.1 14.3 13.2 83 1.6 ESE 15 22 8 12 1023.4 1022.7 28.0
22/11:00pm 16.0 13.7 13.1 83 1.6 E 17 26 9 14 1023.7 1023.1 28.0
22/10:30pm 15.6 12.8 13.3 86 1.3 ESE 20 32 11 17 1023.7 1023.1 28.0
22/10:00pm 15.6 11.3 13.3 86 1.3 E 28 41 15 22 1023.7 1023.1 28.0
22/09:30pm 15.9 13.2 13.4 85 1.4 E 20 26 11 14 1023.7 1023.1 28.0
22/09:00pm 15.3 13.8 13.1 87 1.2 SE 13 22 7 12 1023.8 1023.2 28.0
22/08:30pm 14.7 13.4 13.6 93 0.6 SSE 13 20 7 11 1023.6 1022.9 28.0
22/08:00pm 14.7 12.2 13.6 93 0.6 SSE 19 28 10 15 1023.3 1022.6 28.0
22/07:30pm 14.4 11.9 13.6 95 0.4 SSE 19 26 10 14 1023.1 1022.4 27.6
22/07:00pm 14.5 13.1 13.5 94 0.6 SSE 13 17 7 9 1023.4 1022.7 26.4
22/06:30pm 14.7 13.4 13.6 93 0.6 SSE 13 20 7 11 1023.2 1022.5 24.4
22/06:00pm 14.6 12.5 13.6 94 0.6 SSE 17 24 9 13 1022.6 1021.9 23.4
22/05:30pm 14.7 12.1 13.7 94 0.6 S 20 30 11 16 1022.2 1021.5 22.8
22/05:00pm 14.8 12.2 13.8 94 0.6 SSE 20 28 11 15 1022.0 1021.3 22.0
22/04:30pm 14.9 12.3 13.9 94 0.6 S 20 30 11 16 1022.0 1021.3 20.6
22/04:00pm 15.1 12.8 14.1 94 0.6 S 19 24 10 13 1022.0 1021.3 18.0
22/03:30pm 15.2 12.9 14.1 93 0.6 S 19 24 10 13 1021.7 1021.0 14.6
22/03:00pm 15.3 12.0 14.0 92 0.7 S 24 32 13 17 1020.9 1020.2 13.2
22/02:30pm 15.4 11.8 14.1 92 0.7 SSE 26 33 14 18 1020.7 1020.0 12.0
22/02:00pm 15.4 11.8 14.1 92 0.7 SSE 26 35 14 19 1021.0 1020.3 10.4
22/01:30pm 15.4 11.3 13.9 91 0.9 S 28 37 15 20 1021.2 1020.5 9.6
22/01:00pm 15.7 12.2 14.4 92 0.7 SSE 26 35 14 19 1021.7 1021.0 9.4
22/12:30pm 15.7 12.2 14.4 92 0.7 S 26 33 14 18 1022.1 1021.4 9.0
22/12:00pm 15.4 12.6 14.3 93 0.6 SSE 22 32 12 17 1022.8 1022.1 8.6
22/11:30am 15.1 11.4 14.0 93 0.6 SSE 26 33 14 18 1023.2 1022.5 8.4
22/11:00am 15.0 11.7 14.0 94 0.6 S 24 32 13 17 1023.3 1022.6 8.2
22/10:30am 14.7 10.9 13.7 94 0.6 S 26 35 14 19 1023.7 1023.1 7.2
22/10:00am 14.7 12.6 13.6 93 0.6 S 17 24 9 13 1024.0 1023.4 5.6
22/09:30am 14.7 13.3 13.4 92 0.7 S 13 19 7 10 1024.2 1023.6 2.0
22/09:00am 15.0 13.4 13.9 93 0.6 S 15 19 8 10 1024.0 1023.4 15.6
22/08:30am 14.7 12.0 13.6 93 0.6 S 20 30 11 16 1023.5 1022.8 15.2
22/08:00am 14.5 12.8 13.5 94 0.6 SSE 15 19 8 10 1023.4 1022.7 14.8
22/07:30am 14.7 13.6 13.1 90 0.9 SSE 11 15 6 8 1023.4 1022.7 12.4
22/07:00am 14.6 12.3 13.0 90 0.9 SSE 17 20 9 11 1022.7 1022.0 11.6
22/06:30am 14.5 11.8 13.0 91 0.8 ESE 19 28 10 15 1022.2 1021.5 11.0
22/06:00am 14.3 11.0 12.7 90 0.9 ESE 22 33 12 18 1021.8 1021.1 10.0
22/05:30am 14.3 11.5 12.5 89 1.0 ESE 19 30 10 16 1021.6 1020.9 8.8
22/05:00am 14.2 9.9 12.2 88 1.1 E 26 37 14 20 1021.0 1020.3 8.2
22/04:30am 14.1 9.8 12.1 88 1.1 E 26 37 14 20 1020.6 1019.9 8.0
22/04:00am 13.9 8.8 11.9 88 1.1 E 30 41 16 22 1020.5 1019.8 7.8
22/03:30am 13.7 8.1 11.4 86 1.2 E 32 41 17 22 1020.0 1019.3 7.4
22/03:00am 13.7 7.5 11.4 86 1.2 E 35 46 19 25 1020.1 1019.4 7.2
22/02:30am 13.6 7.4 11.3 86 1.2 E 35 50 19 27 1020.2 1019.5 6.8
22/02:13am 13.6 7.4 11.5 87 1.1 E 35 54 19 29 1020.3 1019.6 6.8
22/02:00am 13.8 6.8 11.3 85 1.3 E 39 50 21 27 1020.6 1019.9 6.8
22/01:30am 14.3 8.3 12.0 86 1.3 E 35 57 19 31 1020.8 1020.1 6.6
22/01:19am 13.8 8.3 11.8 88 1.1 E 32 50 17 27 1021.2 1020.5 6.6
22/01:00am 13.9 7.1 11.9 88 1.1 E 39 54 21 29 1021.2 1020.5 6.6
22/12:44am 14.0 7.2 11.9 87 1.1 E 39 57 21 31 1021.6 1020.9 6.6
22/12:30am 14.0 6.5 12.0 88 1.1 E 43 56 23 30 1021.6 1020.9 6.4
22/12:00am 14.1 7.7 12.1 88 1.1 E 37 59 20 32 1021.7 1021.0 6.2
 
Date/Time
EST
Temp
°C
App
Temp
°C
Dew
Point
Rel
Hum
%
Delta-T
°C
Wind Press
QNH
hPa
Press
MSL
hPa
Rain
since 9 am
mm
Dir
 
Spd
km/h
Gust
km/h
Spd
kts
Gust
kts
21/11:57pm 14.1 8.1 12.1 88 1.1 E 35 54 19 29 1021.7 1021.0 6.2
21/11:30pm 14.0 7.6 12.0 88 1.1 E 37 50 20 27 1021.9 1021.2 5.2
21/11:00pm 13.9 7.1 12.1 89 1.0 E 39 56 21 30 1022.2 1021.5 3.6
21/10:35pm 14.1 6.9 12.0 87 1.1 E 41 59 22 32 1022.1 1021.4 3.0
21/10:30pm 14.1 6.6 12.0 87 1.1 E 43 59 23 32 1022.0 1021.3 3.0
21/10:00pm 14.5 7.4 12.2 86 1.3 E 41 59 22 32 1021.5 1020.8 2.6
21/09:31pm 14.9 9.5 12.2 84 1.5 E 32 50 17 27 1022.1 1021.4 2.4
21/09:30pm 14.9 9.5 12.2 84 1.5 E 32 46 17 25 1022.1 1021.4 2.4
21/09:00pm 15.3 11.5 12.4 83 1.6 E 24 33 13 18 1022.4 1021.7 2.4
21/08:30pm 15.3 12.4 12.8 85 1.4 E 20 28 11 15 1022.6 1021.9 2.4
21/08:00pm 14.9 12.9 12.8 87 1.2 ENE 15 19 8 10 1022.7 1022.0 2.4
21/07:30pm 15.1 14.8 13.3 89 1.0 N 7 13 4 7 1022.4 1021.7 2.4
21/07:00pm 15.2 14.2 13.4 89 1.0 W 11 17 6 9 1022.5 1021.8 2.2
21/06:30pm 16.2 12.6 11.8 75 2.4 ESE 22 37 12 20 1021.9 1021.2 1.4
21/06:00pm 16.2 12.3 12.2 77 2.2 SSE 24 35 13 19 1021.7 1021.0 1.4
21/05:30pm 16.2 12.2 12.9 81 1.8 S 26 33 14 18 1021.1 1020.4 1.4
21/05:00pm 16.2 12.2 12.9 81 1.8 SSE 26 35 14 19 1021.3 1020.6 1.4
21/04:30pm 16.3 10.9 12.7 79 2.0 SSE 33 48 18 26 1020.9 1020.2 1.4
21/04:07pm 16.6 12.4 13.5 82 1.8 S 28 48 15 26 1021.0 1020.3 1.4
21/04:00pm 16.7 13.9 14.2 85 1.4 SSE 22 46 12 25 1021.0 1020.3 1.4
21/03:52pm 15.9 11.5 13.0 83 1.6 S 28 46 15 25 1020.9 1020.2 1.4
21/03:30pm 15.8 13.0 14.2 90 0.9 S 22 28 12 15 1021.6 1020.9 1.4
21/03:00pm 15.0 11.5 13.4 90 0.9 S 24 35 13 19 1021.7 1021.0 0.8
21/02:30pm 15.6 10.1 13.6 88 1.1 SSW 35 43 19 23 1021.8 1021.1 0.2
21/02:00pm 17.2 12.3 15.4 89 1.1 S 35 46 19 25 1021.4 1020.7 0.0
21/01:30pm 17.9 13.6 16.8 93 0.7 SSW 35 48 19 26 1020.9 1020.2 0.0
21/01:05pm 18.2 15.3 14.1 77 2.4 SSW 22 33 12 18 1021.0 1020.3 0.0
21/01:00pm 23.3 22.1 11.7 48 6.6 NNE 9 15 5 8 1020.7 1020.0 0.0
21/12:30pm 24.0 20.7 11.0 44 7.3 N 19 24 10 13 1020.7 1020.0 0.0
21/12:00pm 24.3 19.8 10.2 41 7.8 NNE 24 35 13 19 1020.7 1020.0 0.0
21/11:30am 24.8 20.1 10.7 41 7.9 ENE 26 41 14 22 1021.0 1020.3 0.0
21/11:00am 24.2 20.3 12.2 47 6.9 ENE 24 33 13 18 1021.5 1020.8 0.0
21/10:30am 23.9 20.5 12.5 49 6.6 ENE 22 35 12 19 1022.2 1021.5 0.0
21/10:00am 22.5 18.4 12.7 54 5.6 ENE 26 35 14 19 1022.4 1021.7 0.0
21/09:30am 21.5 17.2 13.2 59 4.8 ENE 28 39 15 21 1022.3 1021.6 0.0
21/09:00am 21.2 16.6 13.6 62 4.4 ENE 30 43 16 23 1022.2 1021.5 0.0
21/08:30am 20.9 17.0 14.3 66 3.9 ENE 28 41 15 22 1022.0 1021.3 0.0
21/08:28am 20.6 16.3 14.3 67 3.7 ENE 30 48 16 26 1022.0 1021.3 0.0
21/08:00am 20.0 15.7 14.4 70 3.3 ENE 30 39 16 21 1021.6 1020.9 0.0
21/07:30am 19.4 17.2 14.9 75 2.7 ENE 20 32 11 17 1021.3 1020.6 0.0
21/07:00am 18.7 15.7 14.8 78 2.3 ENE 24 35 13 19 1020.6 1019.9 0.0
21/06:30am 18.1 15.9 14.8 81 1.9 E 20 28 11 15 1020.5 1019.8 0.0
21/06:00am 17.9 15.4 14.2 79 2.1 ENE 20 30 11 16 1019.8 1019.1 0.0
21/05:30am 17.9 15.1 14.4 80 2.0 ENE 22 28 12 15 1019.6 1018.9 0.0
21/05:00am 17.9 15.5 14.4 80 2.0 E 20 28 11 15 1019.7 1019.0 0.0
21/04:30am 18.0 16.6 13.5 75 2.6 ESE 13 19 7 10 1019.8 1019.1 0.0
21/04:00am 18.1 15.9 13.2 73 2.8 E 17 24 9 13 1019.6 1018.9 0.0
21/03:30am 17.5 16.2 12.4 72 2.8 E 11 15 6 8 1019.4 1018.8 0.0
21/03:00am 17.5 15.3 12.2 71 2.9 E 15 19 8 10 1019.4 1018.8 0.0
21/02:30am 17.4 15.5 11.9 70 3.0 E 13 17 7 9 1019.4 1018.8 0.0
21/02:00am 17.4 14.6 11.2 67 3.4 ENE 17 22 9 12 1019.2 1018.6 0.0
21/01:30am 16.8 15.1 11.1 69 3.1 ENE 11 13 6 7 1020.2 1019.5 0.0
21/01:00am 16.5 14.5 11.6 73 2.7 NE 13 13 7 7 1020.1 1019.4 0.0
21/12:30am 16.9 15.4 11.8 72 2.8 NE 11 15 6 8 1020.2 1019.5 0.0
21/12:00am 17.7 16.0 12.6 72 2.9 NE 13 17 7 9 1020.0 1019.3 0.0
 
Date/Time
EST
Temp
°C
App
Temp
°C
Dew
Point
Rel
Hum
%
Delta-T
°C
Wind Press
QNH
hPa
Press
MSL
hPa
Rain
since 9 am
mm
Dir
 
Spd
km/h
Gust
km/h
Spd
kts
Gust
kts
20/11:30pm 17.0 15.5 11.9 72 2.8 ENE 11 13 6 7 1020.2 1019.5 0.0
20/11:00pm 17.3 15.5 12.0 71 2.9 N 13 17 7 9 1020.2 1019.5 0.0
20/10:30pm 17.3 15.2 11.3 68 3.3 N 13 15 7 8 1019.9 1019.2 0.0
20/10:00pm 18.3 16.9 10.9 62 4.0 NNE 9 13 5 7 1019.9 1019.2 0.0
20/09:30pm 20.7 17.6 11.6 56 5.1 NE 19 28 10 15 1019.7 1019.0 0.0
20/09:00pm 21.4 18.1 11.7 54 5.4 NE 20 30 11 16 1019.3 1018.7 0.0
20/08:30pm 22.0 18.6 11.4 51 6.0 NE 20 30 11 16 1018.6 1017.9 0.0
20/08:00pm 22.6 18.9 10.1 45 6.9 ENE 20 24 11 13 1017.9 1017.2 0.0
20/07:30pm 24.0 21.2 8.4 37 8.4 ESE 13 19 7 10 1017.1 1016.4 0.0
20/07:00pm 23.8 21.2 7.8 36 8.5 E 11 13 6 7 1016.8 1016.1 0.0
20/06:30pm 24.0 21.7 7.6 35 8.7 ENE 9 11 5 6 1016.4 1015.7 0.0
20/06:00pm 25.7 23.1 7.8 32 9.6 ENE 11 17 6 9 1015.9 1015.2 0.0
20/05:30pm 26.7 24.1 7.7 30 10.2 ENE 11 15 6 8 1015.5 1014.8 0.0
20/05:00pm 27.9 24.9 7.7 28 11.0 ENE 13 19 7 10 1015.0 1014.3 0.0
20/04:30pm 27.7 25.0 7.5 28 10.9 E 11 17 6 9 1014.7 1014.0 0.0
20/04:00pm 27.2 24.2 7.6 29 10.6 E 13 17 7 9 1014.5 1013.7 0.0
20/03:30pm 27.8 25.3 8.1 29 10.8 ENE 11 17 6 9 1014.4 1013.6 0.0
20/03:00pm 27.4 25.3 8.3 30 10.4 SSE 9 15 5 8 1014.4 1013.6 0.0
20/02:30pm 26.9 24.2 8.8 32 10.0 E 13 24 7 13 1014.8 1014.1 0.0
20/02:00pm 28.3 26.0 9.1 30 10.7 ENE 11 19 6 10 1015.3 1014.6 0.0
20/01:30pm 27.9 25.1 10.1 33 10.1 ENE 15 22 8 12 1015.8 1015.1 0.0
20/01:00pm 27.9 25.1 10.1 33 10.0 NE 15 22 8 12 1016.4 1015.7 0.0
20/12:30pm 26.2 23.0 10.0 36 9.1 E 17 28 9 15 1016.8 1016.1 0.0
20/12:00pm 25.6 22.8 11.4 41 8.1 E 17 28 9 15 1017.5 1016.8 0.0
20/11:30am 26.0 24.0 11.4 40 8.4 NE 13 26 7 14 1018.1 1017.4 0.0
20/11:00am 24.8 23.2 11.4 43 7.6 E 11 17 6 9 1018.5 1017.8 0.0
20/10:30am 23.8 21.9 11.8 47 6.8 N 13 24 7 13 1019.0 1018.3 0.0
20/10:00am 23.2 21.4 12.2 50 6.3 NNE 13 24 7 13 1019.4 1018.8 0.0
20/09:30am 22.9 21.0 13.1 54 5.7 NNE 15 20 8 11 1019.9 1019.2 0.0
20/09:00am 21.2 20.6 13.6 62 4.4 NNE 9 17 5 9 1020.2 1019.5 0.0
20/08:30am 21.6 20.9 14.3 63 4.3 ENE 11 17 6 9 1020.2 1019.5 0.0
20/08:00am 20.0 19.0 13.5 66 3.7 ESE 11 17 6 9 1020.0 1019.3 0.0
20/07:30am 19.6 18.3 13.8 69 3.4 SE 13 17 7 9 1019.4 1018.8 0.0
20/07:00am 17.7 17.8 14.4 81 1.9 SE 7 9 4 5 1019.3 1018.7 0.0
20/06:30am 15.4 14.4 12.3 82 1.7 SSW 9 11 5 6 1019.0 1018.3 0.0
20/06:00am 15.1 14.5 12.4 84 1.5 S 7 9 4 5 1018.5 1017.8 0.0
20/05:30am 15.3 14.8 12.6 84 1.5 ESE 7 11 4 6 1018.1 1017.4 0.0
20/05:00am 15.0 14.1 12.7 86 1.3 ESE 9 11 5 6 1017.4 1016.7 0.0
20/04:30am 15.1 14.0 13.0 87 1.2 ESE 11 13 6 7 1017.2 1016.5 0.0
20/04:00am 15.4 14.5 12.5 83 1.6 SE 9 13 5 7 1017.0 1016.3 0.0
20/03:30am 15.9 14.8 13.2 84 1.5 SE 11 13 6 7 1017.2 1016.5 0.0
20/03:00am 15.0 14.1 12.5 85 1.4 SE 9 13 5 7 1017.3 1016.6 0.0
20/02:30am 15.0 13.3 12.5 85 1.4 SSE 13 15 7 8 1017.6 1016.9 0.0
20/02:00am 14.7 14.9 12.0 84 1.5 SSW 2 13 1 7 1018.0 1017.3 0.0
20/01:30am 14.9 13.1 12.2 84 1.5 NE 13 15 7 8 1017.3 1016.6 0.0
20/01:00am 14.8 12.9 11.8 82 1.6 NE 13 15 7 8 1017.4 1016.7 0.0
20/12:30am 14.9 13.2 11.1 78 2.0 NE 11 13 6 7 1017.4 1016.7 0.0

Other Formats:

Comma delimited format used in spreadsheet applications
http://www.bom.gov.au/fwo/IDQ60801/IDQ60801.94398.axf

JavaScript Object Notation format (JSON) in row-major order
http://www.bom.gov.au/fwo/IDQ60801/IDQ60801.94398.json